HappyWetter - St.Margarethen im Burgenland
Wetterdaten: aktuell Sonntag, 20.09.2020 06:18
Datum Zeit Temp. A. Feuchte A. Luftdruck Regen Wind Richtung Richtung Sonnenschein ET Solar Taupunkt Windchill Windben Empfang
20.09.2020 06:18 10,2 C 89 % 1017,1 hPa 0,0 l/m 4,2 km/h (1 Bft) O 88 0 min 0,000 mm 0 W/m 8,5 C 10,2 C 4,8 km/h (1 Bft) 100,00 %
20.09.2020 05:18 10,6 C 88 % 1017,5 hPa 0,0 l/m 4,5 km/h (1 Bft) O 88 0 min 0,025 mm 0 W/m 8,7 C 10,6 C 6,4 km/h (2 Bft) 95,83 %
20.09.2020 04:19 10,9 C 87 % 1017,4 hPa 0,0 l/m 7,4 km/h (2 Bft) O 80 0 min 0,026 mm 0 W/m 8,8 C 10,2 C 9,7 km/h (2 Bft) 100,00 %
20.09.2020 03:20 11,6 C 85 % 1017,5 hPa 0,0 l/m 3,2 km/h (1 Bft) O-NO 69 0 min 0,025 mm 0 W/m 9,2 C 11,6 C 4,8 km/h (1 Bft) 100,00 %
20.09.2020 02:21 11,8 C 83 % 1017,6 hPa 0,0 l/m 3,6 km/h (1 Bft) O-NO 70 0 min 0,026 mm 0 W/m 9,0 C 11,8 C 4,8 km/h (1 Bft) 100,00 %
20.09.2020 01:22 12,2 C 80 % 1017,9 hPa 0,0 l/m 2,9 km/h (1 Bft) SO 132 0 min 0,025 mm 0 W/m 8,9 C 12,2 C 3,2 km/h (1 Bft) 100,00 %
20.09.2020 00:23 12,9 C 76 % 1018,4 hPa 0,0 l/m 2,8 km/h (1 Bft) O 88 0 min 0,000 mm 0 W/m 8,8 C 12,9 C 3,2 km/h (1 Bft) 100,00 %
19.09.2020 23:24 13,9 C 72 % 1018,7 hPa 0,0 l/m 1,0 km/h (0 Bft) O 92 0 min 0,026 mm 0 W/m 8,9 C 13,9 C 3,2 km/h (1 Bft) 100,00 %
19.09.2020 22:25 14,9 C 67 % 1018,8 hPa 0,0 l/m 3,1 km/h (1 Bft) O 92 0 min 0,051 mm 0 W/m 8,8 C 14,9 C 4,8 km/h (1 Bft) 100,00 %
19.09.2020 21:25 14,9 C 65 % 1018,9 hPa 0,0 l/m 6,5 km/h (2 Bft) SO 124 0 min 0,050 mm 0 W/m 8,4 C 14,9 C 8,0 km/h (2 Bft) 100,00 %
19.09.2020 20:26 15,7 C 63 % 1018,7 hPa 0,0 l/m 6,0 km/h (2 Bft) S-SO 153 0 min 0,051 mm 0 W/m 8,7 C 15,7 C 8,0 km/h (2 Bft) 100,00 %
19.09.2020 19:27 16,9 C 62 % 1018,6 hPa 0,0 l/m 6,4 km/h (2 Bft) O-SO 123 0 min 0,076 mm 0 W/m 9,6 C 16,9 C 9,7 km/h (2 Bft) 100,00 %
19.09.2020 18:28 19,0 C 55 % 1018,7 hPa 0,0 l/m 7,7 km/h (2 Bft) O 93 0 min 0,001 mm 26 W/m 9,8 C 18,4 C 11,3 km/h (2 Bft) 100,00 %
19.09.2020 17:29 20,9 C 48 % 1018,6 hPa 0,0 l/m 12,5 km/h (3 Bft) O-SO 114 45 min 0,305 mm 86 W/m 9,5 C 18,9 C 19,3 km/h (3 Bft) 100,00 %
19.09.2020 16:30 21,2 C 49 % 1019,1 hPa 0,0 l/m 11,8 km/h (2 Bft) O-SO 123 60 min 0,304 mm 339 W/m 10,1 C 19,5 C 17,7 km/h (3 Bft) 100,00 %
19.09.2020 15:31 21,6 C 49 % 1019,9 hPa 0,0 l/m 15,2 km/h (3 Bft) SO 124 60 min 0,381 mm 274 W/m 10,4 C 19,1 C 20,9 km/h (4 Bft) 100,00 %
19.09.2020 14:32 21,3 C 53 % 1020,5 hPa 0,0 l/m 19,3 km/h (3 Bft) SO 130 60 min 0,001 mm 320 W/m 11,3 C 18,0 C 27,4 km/h (4 Bft) 100,00 %
19.09.2020 13:33 21,3 C 52 % 1021,1 hPa 0,0 l/m 18,7 km/h (3 Bft) SO 126 60 min 0,482 mm 469 W/m 11,0 C 18,1 C 24,1 km/h (4 Bft) 100,00 %
19.09.2020 12:34 21,8 C 53 % 1021,4 hPa 0,0 l/m 13,0 km/h (3 Bft) O-SO 117 60 min 0,432 mm 670 W/m 11,8 C 19,9 C 25,7 km/h (4 Bft) 96,43 %
19.09.2020 11:34 19,7 C 54 % 1022,2 hPa 0,0 l/m 13,4 km/h (3 Bft) SO 142 60 min 0,254 mm 638 W/m 10,1 C 17,3 C 19,3 km/h (3 Bft) 100,00 %
19.09.2020 10:35 17,3 C 66 % 1022,8 hPa 0,0 l/m 12,9 km/h (3 Bft) O-SO 118 60 min 0,229 mm 278 W/m 10,9 C 14,6 C 17,7 km/h (3 Bft) 100,00 %
19.09.2020 09:36 15,7 C 72 % 1023,1 hPa 0,0 l/m 13,2 km/h (3 Bft) S-SO 156 60 min 0,127 mm 427 W/m 10,7 C 12,6 C 17,7 km/h (3 Bft) 100,00 %
19.09.2020 08:37 12,7 C 90 % 1023,4 hPa 0,0 l/m 5,0 km/h (1 Bft) O 84 42 min 0,051 mm 262 W/m 11,1 C 12,7 C 8,0 km/h (2 Bft) 100,00 %
19.09.2020 07:38 8,4 C 92 % 1023,7 hPa 0,0 l/m 0,0 km/h (0 Bft) N-NO 14 0 min 0,000 mm 104 W/m 7,2 C 8,4 C 0,0 km/h (0 Bft) 100,00 %
19.09.2020 07:00 6,9 C 90 % 1023,6 hPa 0,0 l/m 2,7 km/h (1 Bft) W-NW 303 0 min 0,000 mm 25 W/m 5,4 C 6,9 C 3,2 km/h (1 Bft) 100,00 %
_ Min-Zeit 07:00 17:07 06:18 - 03:51 - - - - - 07:00 07:00 03:51 16:02
Minimum _ 6,9 C 45 % 1017,1 hPa - 0,0 km/h (0 Bft) - - - - - 5,4 C 6,9 C 0,0 km/h (0 Bft) 83,33 %
_ Max-Zeit 13:18 08:19 07:41 06:18 13:21 - - 12:13 13:00 13:07 12:42 14:54 14:35 06:18
Maximum _ 22,4 C 93 % 1023,7 hPa 0,0 l/m 25,2 km/h
SO (4 Bft)
- - 2 min 0,482 mm 770 W/m 12,1 C 21,1 C 32,2 km/h
SO (5 Bft)
100,00 %
Durchschnitt _ 15,1 C 70 % 1020,0 hPa #0,0 l/m 7,5 km/h (2 Bft) SO - #0 min. #0,127 mm 0 W/m 9,2 C 14,2 C 10,7 km/h (2 Bft) 99,34 %